sensor_id;sensor_type;location;lat;lon;timestamp;pressure;altitude;pressure_sealevel;temperature;humidity
39487;BME280;25173;50.430;18.926;2023-06-14T00:00:02;98162.06;;;14.12;55.53
39487;BME280;25173;50.430;18.926;2023-06-14T00:03:05;98161.81;;;14.08;55.72
39487;BME280;25173;50.430;18.926;2023-06-14T00:06:05;98149.56;;;14.06;55.95
39487;BME280;25173;50.430;18.926;2023-06-14T00:09:06;98164.34;;;14.05;55.90
39487;BME280;25173;50.430;18.926;2023-06-14T00:12:08;98157.53;;;14.02;55.74
39487;BME280;25173;50.430;18.926;2023-06-14T00:15:09;98155.41;;;13.99;55.80
39487;BME280;25173;50.430;18.926;2023-06-14T00:18:10;98157.63;;;13.97;55.45
39487;BME280;25173;50.430;18.926;2023-06-14T00:21:12;98154.06;;;13.96;55.69
39487;BME280;25173;50.430;18.926;2023-06-14T00:24:12;98155.47;;;13.94;56.18
39487;BME280;25173;50.430;18.926;2023-06-14T00:27:13;98149.50;;;13.92;56.24
39487;BME280;25173;50.430;18.926;2023-06-14T00:30:14;98149.97;;;13.94;56.20
39487;BME280;25173;50.430;18.926;2023-06-14T00:33:14;98143.94;;;13.97;56.17
39487;BME280;25173;50.430;18.926;2023-06-14T00:36:17;98142.53;;;13.99;56.41
39487;BME280;25173;50.430;18.926;2023-06-14T00:39:18;98140.53;;;14.05;56.55
39487;BME280;25173;50.430;18.926;2023-06-14T00:42:28;98134.66;;;14.12;57.07
39487;BME280;25173;50.430;18.926;2023-06-14T00:45:28;98146.88;;;14.19;56.77
39487;BME280;25173;50.430;18.926;2023-06-14T00:48:31;98141.75;;;14.31;56.94
39487;BME280;25173;50.430;18.926;2023-06-14T00:51:34;98136.66;;;14.44;56.79
39487;BME280;25173;50.430;18.926;2023-06-14T00:54:34;98145.81;;;14.53;56.73
39487;BME280;25173;50.430;18.926;2023-06-14T00:57:38;98138.53;;;14.62;56.81
39487;BME280;25173;50.430;18.926;2023-06-14T01:00:40;98136.19;;;14.69;56.72
39487;BME280;25173;50.430;18.926;2023-06-14T01:03:41;98136.94;;;14.74;56.32
39487;BME280;25173;50.430;18.926;2023-06-14T01:10:35;98141.34;;;14.89;57.19
39487;BME280;25173;50.430;18.926;2023-06-14T01:13:39;98136.88;;;14.93;57.27
39487;BME280;25173;50.430;18.926;2023-06-14T01:16:41;98128.47;;;15.03;57.37
39487;BME280;25173;50.430;18.926;2023-06-14T01:19:45;98122.97;;;15.17;57.46
39487;BME280;25173;50.430;18.926;2023-06-14T01:22:54;98124.88;;;15.30;57.30
39487;BME280;25173;50.430;18.926;2023-06-14T01:25:55;98128.25;;;15.41;57.18
39487;BME280;25173;50.430;18.926;2023-06-14T01:28:56;98125.28;;;15.51;57.10
39487;BME280;25173;50.430;18.926;2023-06-14T01:32:01;98118.97;;;15.64;57.13
39487;BME280;25173;50.430;18.926;2023-06-14T01:35:05;98114.38;;;15.73;56.98
39487;BME280;25173;50.430;18.926;2023-06-14T01:38:07;98117.72;;;15.84;57.08
39487;BME280;25173;50.430;18.926;2023-06-14T01:41:09;98115.06;;;15.93;57.21
39487;BME280;25173;50.430;18.926;2023-06-14T01:44:12;98111.88;;;15.99;57.37
39487;BME280;25173;50.430;18.926;2023-06-14T01:47:14;98123.56;;;16.05;57.32
39487;BME280;25173;50.430;18.926;2023-06-14T01:50:15;98128.81;;;16.15;57.66
39487;BME280;25173;50.430;18.926;2023-06-14T01:53:16;98123.56;;;16.27;57.45
39487;BME280;25173;50.430;18.926;2023-06-14T01:56:16;98131.25;;;16.39;57.47
39487;BME280;25173;50.430;18.926;2023-06-14T01:59:18;98128.75;;;16.51;57.50
39487;BME280;25173;50.430;18.926;2023-06-14T02:02:18;98127.41;;;16.62;57.34
39487;BME280;25173;50.430;18.926;2023-06-14T02:05:19;98125.97;;;16.64;57.22
39487;BME280;25173;50.430;18.926;2023-06-14T02:08:20;98113.03;;;16.65;57.19
39487;BME280;25173;50.430;18.926;2023-06-14T02:11:20;98121.34;;;16.60;57.21
39487;BME280;25173;50.430;18.926;2023-06-14T02:14:21;98114.56;;;16.57;57.18
39487;BME280;25173;50.430;18.926;2023-06-14T02:17:22;98110.19;;;16.56;57.28
39487;BME280;25173;50.430;18.926;2023-06-14T02:20:23;98109.38;;;16.56;57.55
39487;BME280;25173;50.430;18.926;2023-06-14T02:23:24;98110.19;;;16.56;57.56
39487;BME280;25173;50.430;18.926;2023-06-14T02:26:25;98117.94;;;16.54;57.76
39487;BME280;25173;50.430;18.926;2023-06-14T02:29:29;98121.94;;;16.48;57.95
39487;BME280;25173;50.430;18.926;2023-06-14T02:32:29;98121.94;;;16.48;57.95
39487;BME280;25173;50.430;18.926;2023-06-14T02:35:30;98115.19;;;16.54;57.93
39487;BME280;25173;50.430;18.926;2023-06-14T02:38:31;98120.69;;;16.54;57.79
39487;BME280;25173;50.430;18.926;2023-06-14T02:41:32;98123.44;;;16.54;57.90
39487;BME280;25173;50.430;18.926;2023-06-14T02:44:32;98121.81;;;16.53;58.04
39487;BME280;25173;50.430;18.926;2023-06-14T02:47:34;98121.19;;;16.56;58.20
39487;BME280;25173;50.430;18.926;2023-06-14T02:50:34;98120.53;;;16.51;58.16
39487;BME280;25173;50.430;18.926;2023-06-14T02:53:35;98120.47;;;16.42;58.47
39487;BME280;25173;50.430;18.926;2023-06-14T02:56:37;98126.75;;;16.43;58.53
39487;BME280;25173;50.430;18.926;2023-06-14T02:59:37;98116.06;;;16.41;58.77
39487;BME280;25173;50.430;18.926;2023-06-14T03:02:39;98119.03;;;16.45;58.91
39487;BME280;25173;50.430;18.926;2023-06-14T03:05:43;98114.50;;;16.49;58.93
39487;BME280;25173;50.430;18.926;2023-06-14T03:08:47;98115.78;;;16.43;58.88
39487;BME280;25173;50.430;18.926;2023-06-14T03:11:50;98114.44;;;16.40;59.06
39487;BME280;25173;50.430;18.926;2023-06-14T03:14:51;98108.44;;;16.38;59.11
39487;BME280;25173;50.430;18.926;2023-06-14T03:17:54;98106.84;;;16.37;59.10
39487;BME280;25173;50.430;18.926;2023-06-14T03:20:56;98115.56;;;16.39;59.29
39487;BME280;25173;50.430;18.926;2023-06-14T03:23:59;98115.13;;;16.46;59.28
39487;BME280;25173;50.430;18.926;2023-06-14T03:27:00;98114.19;;;16.50;59.29
39487;BME280;25173;50.430;18.926;2023-06-14T03:30:03;98118.59;;;16.51;59.52
39487;BME280;25173;50.430;18.926;2023-06-14T03:33:06;98114.88;;;16.56;59.67
39487;BME280;25173;50.430;18.926;2023-06-14T03:36:11;98112.34;;;16.59;59.72
39487;BME280;25173;50.430;18.926;2023-06-14T03:39:15;98121.59;;;16.63;59.62
39487;BME280;25173;50.430;18.926;2023-06-14T03:42:19;98122.22;;;16.60;59.62
39487;BME280;25173;50.430;18.926;2023-06-14T03:45:23;98118.75;;;16.55;59.72
39487;BME280;25173;50.430;18.926;2023-06-14T03:48:43;98115.84;;;16.51;60.02
39487;BME280;25173;50.430;18.926;2023-06-14T03:52:09;98128.94;;;16.54;59.92
39487;BME280;25173;50.430;18.926;2023-06-14T03:55:27;98128.31;;;16.57;60.00
39487;BME280;25173;50.430;18.926;2023-06-14T03:58:28;98124.44;;;16.58;60.03
39487;BME280;25173;50.430;18.926;2023-06-14T04:01:30;98123.03;;;16.61;60.16
39487;BME280;25173;50.430;18.926;2023-06-14T04:04:34;98127.72;;;16.60;60.24
39487;BME280;25173;50.430;18.926;2023-06-14T04:07:36;98122.56;;;16.67;60.30
39487;BME280;25173;50.430;18.926;2023-06-14T04:10:40;98127.00;;;16.77;60.32
39487;BME280;25173;50.430;18.926;2023-06-14T04:13:41;98127.19;;;16.81;60.24
39487;BME280;25173;50.430;18.926;2023-06-14T04:16:42;98118.13;;;16.80;60.46
39487;BME280;25173;50.430;18.926;2023-06-14T04:19:43;98128.38;;;16.88;60.33
39487;BME280;25173;50.430;18.926;2023-06-14T04:22:43;98121.59;;;16.94;60.47
39487;BME280;25173;50.430;18.926;2023-06-14T04:25:45;98127.47;;;17.01;60.34
39487;BME280;25173;50.430;18.926;2023-06-14T04:28:48;98130.59;;;17.17;60.42
39487;BME280;25173;50.430;18.926;2023-06-14T04:31:50;98127.59;;;17.36;60.17
39487;BME280;25173;50.430;18.926;2023-06-14T04:34:56;98119.34;;;17.44;60.18
39487;BME280;25173;50.430;18.926;2023-06-14T04:37:58;98123.56;;;17.51;59.78
39487;BME280;25173;50.430;18.926;2023-06-14T04:40:59;98126.22;;;17.56;59.75
39487;BME280;25173;50.430;18.926;2023-06-14T04:44:02;98120.84;;;17.59;59.63
39487;BME280;25173;50.430;18.926;2023-06-14T04:47:07;98126.56;;;17.63;59.36
39487;BME280;25173;50.430;18.926;2023-06-14T04:50:08;98123.09;;;17.57;59.37
39487;BME280;25173;50.430;18.926;2023-06-14T04:53:10;98125.22;;;17.52;59.70
39487;BME280;25173;50.430;18.926;2023-06-14T04:56:11;98127.47;;;17.50;59.73
39487;BME280;25173;50.430;18.926;2023-06-14T04:59:12;98130.38;;;17.44;59.93
39487;BME280;25173;50.430;18.926;2023-06-14T05:02:13;98136.06;;;17.48;59.77
39487;BME280;25173;50.430;18.926;2023-06-14T05:05:14;98133.44;;;17.43;59.88
39487;BME280;25173;50.430;18.926;2023-06-14T05:08:16;98136.19;;;17.43;60.08
39487;BME280;25173;50.430;18.926;2023-06-14T05:11:17;98130.38;;;17.44;60.03
39487;BME280;25173;50.430;18.926;2023-06-14T05:14:18;98127.63;;;17.44;59.89
39487;BME280;25173;50.430;18.926;2023-06-14T05:17:20;98128.75;;;17.43;60.29
39487;BME280;25173;50.430;18.926;2023-06-14T05:20:22;98120.78;;;17.42;60.33
39487;BME280;25173;50.430;18.926;2023-06-14T05:23:26;98130.38;;;17.44;60.52
39487;BME280;25173;50.430;18.926;2023-06-14T05:26:27;98135.19;;;17.70;60.56
39487;BME280;25173;50.430;18.926;2023-06-14T05:29:31;98145.75;;;18.02;60.03
39487;BME280;25173;50.430;18.926;2023-06-14T05:32:31;98144.78;;;18.33;59.76
39487;BME280;25173;50.430;18.926;2023-06-14T05:35:32;98143.50;;;18.56;59.02
39487;BME280;25173;50.430;18.926;2023-06-14T05:38:33;98147.69;;;18.62;58.29
39487;BME280;25173;50.430;18.926;2023-06-14T05:41:33;98155.97;;;18.71;58.35
39487;BME280;25173;50.430;18.926;2023-06-14T05:44:34;98157.09;;;18.78;58.31
39487;BME280;25173;50.430;18.926;2023-06-14T05:47:35;98164.53;;;18.86;57.90
39487;BME280;25173;50.430;18.926;2023-06-14T05:50:35;98153.94;;;18.97;57.99
39487;BME280;25173;50.430;18.926;2023-06-14T05:53:36;98155.41;;;19.03;58.00
39487;BME280;25173;50.430;18.926;2023-06-14T05:56:36;98160.25;;;19.15;57.96
39487;BME280;25173;50.430;18.926;2023-06-14T05:59:37;98162.06;;;19.11;57.42
39487;BME280;25173;50.430;18.926;2023-06-14T06:02:38;98165.94;;;19.10;57.78
39487;BME280;25173;50.430;18.926;2023-06-14T06:05:39;98169.00;;;19.17;57.26
39487;BME280;25173;50.430;18.926;2023-06-14T06:08:39;98172.41;;;19.22;57.28
39487;BME280;25173;50.430;18.926;2023-06-14T06:11:40;98169.13;;;19.29;57.29
39487;BME280;25173;50.430;18.926;2023-06-14T06:14:41;98172.66;;;19.38;57.19
39487;BME280;25173;50.430;18.926;2023-06-14T06:17:42;98170.72;;;19.47;57.09
39487;BME280;25173;50.430;18.926;2023-06-14T06:20:59;98171.78;;;19.63;56.55
39487;BME280;25173;50.430;18.926;2023-06-14T06:23:59;98178.22;;;19.76;56.32
39487;BME280;25173;50.430;18.926;2023-06-14T06:27:03;98180.41;;;19.91;56.25
39487;BME280;25173;50.430;18.926;2023-06-14T06:30:05;98184.09;;;19.95;55.97
39487;BME280;25173;50.430;18.926;2023-06-14T06:33:06;98177.81;;;19.86;55.93
39487;BME280;25173;50.430;18.926;2023-06-14T06:36:06;98183.69;;;19.85;55.79
39487;BME280;25173;50.430;18.926;2023-06-14T06:39:07;98184.53;;;19.76;55.75
39487;BME280;25173;50.430;18.926;2023-06-14T06:42:11;98181.63;;;19.73;56.01
39487;BME280;25173;50.430;18.926;2023-06-14T06:45:12;98182.72;;;19.81;55.93
39487;BME280;25173;50.430;18.926;2023-06-14T06:48:13;98187.72;;;19.87;56.06
39487;BME280;25173;50.430;18.926;2023-06-14T06:51:14;98190.63;;;19.91;56.09
39487;BME280;25173;50.430;18.926;2023-06-14T06:54:14;98192.44;;;19.87;55.83
39487;BME280;25173;50.430;18.926;2023-06-14T06:57:15;98198.50;;;19.80;56.09
39487;BME280;25173;50.430;18.926;2023-06-14T07:00:16;98192.84;;;19.76;56.17
39487;BME280;25173;50.430;18.926;2023-06-14T07:03:18;98195.94;;;19.75;56.47
39487;BME280;25173;50.430;18.926;2023-06-14T07:06:18;98186.28;;;19.81;56.26
39487;BME280;25173;50.430;18.926;2023-06-14T07:09:19;98189.88;;;19.82;56.34
39487;BME280;25173;50.430;18.926;2023-06-14T07:12:20;98201.09;;;19.85;56.25
39487;BME280;25173;50.430;18.926;2023-06-14T07:15:22;98203.03;;;19.85;56.55
39487;BME280;25173;50.430;18.926;2023-06-14T07:18:22;98199.59;;;19.88;56.89
39487;BME280;25173;50.430;18.926;2023-06-14T07:21:23;98212.63;;;19.78;56.19
39487;BME280;25173;50.430;18.926;2023-06-14T07:24:26;98207.03;;;19.66;56.80
39487;BME280;25173;50.430;18.926;2023-06-14T07:27:28;98213.97;;;19.72;56.75
39487;BME280;25173;50.430;18.926;2023-06-14T07:30:29;98214.22;;;19.88;57.07
39487;BME280;25173;50.430;18.926;2023-06-14T07:33:30;98208.19;;;20.15;56.76
39487;BME280;25173;50.430;18.926;2023-06-14T07:36:31;98219.66;;;20.35;56.17
39487;BME280;25173;50.430;18.926;2023-06-14T07:39:31;98214.72;;;20.40;56.01
39487;BME280;25173;50.430;18.926;2023-06-14T07:42:35;98217.59;;;20.52;55.46
39487;BME280;25173;50.430;18.926;2023-06-14T07:45:37;98221.72;;;20.38;55.53
39487;BME280;25173;50.430;18.926;2023-06-14T07:48:38;98226.47;;;20.37;55.72
39487;BME280;25173;50.430;18.926;2023-06-14T07:51:38;98229.66;;;20.48;56.08
39487;BME280;25173;50.430;18.926;2023-06-14T07:54:39;98235.31;;;20.51;55.52
39487;BME280;25173;50.430;18.926;2023-06-14T07:57:41;98235.47;;;20.26;55.44
39487;BME280;25173;50.430;18.926;2023-06-14T08:00:43;98232.94;;;20.12;56.27
39487;BME280;25173;50.430;18.926;2023-06-14T08:03:43;98232.09;;;20.20;56.30
39487;BME280;25173;50.430;18.926;2023-06-14T08:06:44;98228.28;;;20.33;56.22
39487;BME280;25173;50.430;18.926;2023-06-14T08:09:45;98238.28;;;20.46;56.04
39487;BME280;25173;50.430;18.926;2023-06-14T08:12:46;98236.25;;;20.56;55.41
39487;BME280;25173;50.430;18.926;2023-06-14T08:15:47;98228.22;;;20.63;55.36
39487;BME280;25173;50.430;18.926;2023-06-14T08:18:48;98225.72;;;20.70;55.39
39487;BME280;25173;50.430;18.926;2023-06-14T08:21:49;98225.72;;;20.70;55.02
39487;BME280;25173;50.430;18.926;2023-06-14T08:24:50;98228.22;;;20.63;54.74
39487;BME280;25173;50.430;18.926;2023-06-14T08:27:51;98235.59;;;20.59;55.21
39487;BME280;25173;50.430;18.926;2023-06-14T08:30:52;98236.84;;;20.61;55.22
39487;BME280;25173;50.430;18.926;2023-06-14T08:33:52;98235.66;;;20.50;54.75
39487;BME280;25173;50.430;18.926;2023-06-14T08:36:53;98233.59;;;20.38;55.61
39487;BME280;25173;50.430;18.926;2023-06-14T08:39:54;98231.75;;;20.51;55.61
39487;BME280;25173;50.430;18.926;2023-06-14T08:42:54;98239.56;;;20.70;55.44
39487;BME280;25173;50.430;18.926;2023-06-14T08:45:58;98235.78;;;20.74;55.17
39487;BME280;25173;50.430;18.926;2023-06-14T08:49:01;98247.13;;;20.61;54.77
39487;BME280;25173;50.430;18.926;2023-06-14T08:52:02;98242.59;;;20.35;54.86
39487;BME280;25173;50.430;18.926;2023-06-14T08:55:04;98247.13;;;20.31;55.53
39487;BME280;25173;50.430;18.926;2023-06-14T08:58:05;98252.81;;;20.43;55.86
39487;BME280;25173;50.430;18.926;2023-06-14T09:01:06;98261.66;;;20.58;55.91
39487;BME280;25173;50.430;18.926;2023-06-14T09:04:08;98262.31;;;20.75;55.69
39487;BME280;25173;50.430;18.926;2023-06-14T09:07:08;98265.69;;;20.81;55.10
39487;BME280;25173;50.430;18.926;2023-06-14T09:10:11;98260.81;;;20.78;54.93
39487;BME280;25173;50.430;18.926;2023-06-14T09:13:12;98273.03;;;20.77;55.02
39487;BME280;25173;50.430;18.926;2023-06-14T09:16:13;98274.34;;;20.79;55.08
39487;BME280;25173;50.430;18.926;2023-06-14T09:19:21;98274.88;;;20.73;55.08
39487;BME280;25173;50.430;18.926;2023-06-14T09:22:22;98272.03;;;20.81;55.08
39487;BME280;25173;50.430;18.926;2023-06-14T09:25:23;98274.97;;;20.97;54.95
39487;BME280;25173;50.430;18.926;2023-06-14T09:28:28;98263.38;;;21.24;54.94
39487;BME280;25173;50.430;18.926;2023-06-14T09:31:28;98271.06;;;21.64;54.81
39487;BME280;25173;50.430;18.926;2023-06-14T09:34:33;98263.34;;;21.82;53.61
39487;BME280;25173;50.430;18.926;2023-06-14T09:37:34;98263.59;;;21.77;53.45
39487;BME280;25173;50.430;18.926;2023-06-14T09:40:35;98264.63;;;21.84;53.90
39487;BME280;25173;50.430;18.926;2023-06-14T09:43:37;98263.59;;;21.89;53.33
39487;BME280;25173;50.430;18.926;2023-06-14T09:46:39;98269.06;;;21.97;53.40
39487;BME280;25173;50.430;18.926;2023-06-14T09:49:39;98259.94;;;22.09;52.92
39487;BME280;25173;50.430;18.926;2023-06-14T09:52:42;98268.94;;;22.18;52.88
39487;BME280;25173;50.430;18.926;2023-06-14T09:55:44;98269.28;;;22.04;52.89
39487;BME280;25173;50.430;18.926;2023-06-14T09:58:46;98265.63;;;22.00;52.99
39487;BME280;25173;50.430;18.926;2023-06-14T10:01:48;98275.09;;;21.99;53.08
39487;BME280;25173;50.430;18.926;2023-06-14T10:08:10;98268.34;;;22.25;53.46
39487;BME280;25173;50.430;18.926;2023-06-14T10:11:13;98271.47;;;22.35;52.89
39487;BME280;25173;50.430;18.926;2023-06-14T10:14:14;98283.06;;;22.37;52.76
39487;BME280;25173;50.430;18.926;2023-06-14T10:17:27;98268.56;;;22.32;52.68
39487;BME280;25173;50.430;18.926;2023-06-14T10:20:39;98279.94;;;22.15;52.59
39487;BME280;25173;50.430;18.926;2023-06-14T10:23:44;98274.16;;;22.08;52.89
39487;BME280;25173;50.430;18.926;2023-06-14T10:26:54;98279.59;;;22.04;53.00
39487;BME280;25173;50.430;18.926;2023-06-14T10:33:07;98273.41;;;21.86;53.02
39487;BME280;25173;50.430;18.926;2023-06-14T10:36:25;98267.41;;;21.84;53.24
39487;BME280;25173;50.430;18.926;2023-06-14T10:39:27;98268.00;;;22.02;53.76
39487;BME280;25173;50.430;18.926;2023-06-14T10:42:31;98264.88;;;22.40;53.46
39487;BME280;25173;50.430;18.926;2023-06-14T10:45:32;98266.09;;;22.79;52.14
39487;BME280;25173;50.430;18.926;2023-06-14T10:48:33;98262.09;;;23.04;52.11
39487;BME280;25173;50.430;18.926;2023-06-14T10:51:42;98259.94;;;23.41;51.40
39487;BME280;25173;50.430;18.926;2023-06-14T10:55:10;98256.19;;;23.49;50.74
39487;BME280;25173;50.430;18.926;2023-06-14T10:58:13;98269.97;;;23.46;51.15
39487;BME280;25173;50.430;18.926;2023-06-14T11:01:14;98268.81;;;23.47;51.28
39487;BME280;25173;50.430;18.926;2023-06-14T11:04:17;98266.09;;;23.63;51.21
39487;BME280;25173;50.430;18.926;2023-06-14T11:10:40;98262.94;;;23.64;50.71
39487;BME280;25173;50.430;18.926;2023-06-14T11:13:45;98265.38;;;23.81;51.19
39487;BME280;25173;50.430;18.926;2023-06-14T11:16:49;98262.66;;;24.16;50.83
39487;BME280;25173;50.430;18.926;2023-06-14T11:19:50;98258.69;;;24.49;49.98
39487;BME280;25173;50.430;18.926;2023-06-14T11:22:51;98253.88;;;24.84;49.52
39487;BME280;25173;50.430;18.926;2023-06-14T11:25:52;98260.66;;;25.22;49.08
39487;BME280;25173;50.430;18.926;2023-06-14T11:28:58;98259.63;;;25.49;48.42
39487;BME280;25173;50.430;18.926;2023-06-14T11:31:59;98260.72;;;25.44;47.76
39487;BME280;25173;50.430;18.926;2023-06-14T11:35:00;98258.22;;;25.39;48.09
39487;BME280;25173;50.430;18.926;2023-06-14T11:38:01;98251.75;;;25.35;47.76
39487;BME280;25173;50.430;18.926;2023-06-14T11:41:02;98260.97;;;25.17;48.10
39487;BME280;25173;50.430;18.926;2023-06-14T11:44:02;98256.41;;;24.89;47.92
39487;BME280;25173;50.430;18.926;2023-06-14T11:47:04;98257.63;;;24.72;48.10
39487;BME280;25173;50.430;18.926;2023-06-14T11:50:07;98255.69;;;24.57;47.99
39487;BME280;25173;50.430;18.926;2023-06-14T11:53:08;98257.22;;;24.55;48.38
39487;BME280;25173;50.430;18.926;2023-06-14T11:56:10;98251.56;;;24.67;48.20
39487;BME280;25173;50.430;18.926;2023-06-14T11:59:13;98249.44;;;24.80;47.44
39487;BME280;25173;50.430;18.926;2023-06-14T12:02:18;98252.53;;;24.94;47.94
39487;BME280;25173;50.430;18.926;2023-06-14T12:05:20;98253.63;;;25.08;47.55
39487;BME280;25173;50.430;18.926;2023-06-14T12:08:34;98252.81;;;25.27;46.95
39487;BME280;25173;50.430;18.926;2023-06-14T12:11:41;98256.34;;;25.24;47.16
39487;BME280;25173;50.430;18.926;2023-06-14T12:14:42;98249.25;;;25.27;47.48
39487;BME280;25173;50.430;18.926;2023-06-14T12:17:43;98242.47;;;25.28;47.13
39487;BME280;25173;50.430;18.926;2023-06-14T12:20:48;98244.69;;;25.19;47.52
39487;BME280;25173;50.430;18.926;2023-06-14T12:23:50;98234.00;;;25.43;47.43
39487;BME280;25173;50.430;18.926;2023-06-14T12:26:51;98239.25;;;25.68;47.02
39487;BME280;25173;50.430;18.926;2023-06-14T12:30:03;98239.97;;;25.87;46.08
39487;BME280;25173;50.430;18.926;2023-06-14T12:33:05;98237.81;;;26.00;46.30
39487;BME280;25173;50.430;18.926;2023-06-14T12:36:09;98236.59;;;26.24;46.06
39487;BME280;25173;50.430;18.926;2023-06-14T12:39:17;98243.56;;;26.60;45.43
39487;BME280;25173;50.430;18.926;2023-06-14T12:42:18;98230.06;;;26.69;44.89
39487;BME280;25173;50.430;18.926;2023-06-14T12:45:19;98227.09;;;26.85;44.65
39487;BME280;25173;50.430;18.926;2023-06-14T12:48:20;98227.91;;;27.15;43.78
39487;BME280;25173;50.430;18.926;2023-06-14T12:51:20;98218.13;;;27.35;43.11
39487;BME280;25173;50.430;18.926;2023-06-14T12:54:21;98224.88;;;27.68;42.82
39487;BME280;25173;50.430;18.926;2023-06-14T12:57:25;98215.72;;;28.15;42.75
39487;BME280;25173;50.430;18.926;2023-06-14T13:00:26;98213.56;;;28.56;42.12
39487;BME280;25173;50.430;18.926;2023-06-14T13:03:27;98216.56;;;28.91;41.08
39487;BME280;25173;50.430;18.926;2023-06-14T13:06:27;98213.78;;;28.95;40.63
39487;BME280;25173;50.430;18.926;2023-06-14T13:09:29;98211.78;;;28.95;40.79
39487;BME280;25173;50.430;18.926;2023-06-14T13:12:30;98210.63;;;29.04;40.79
39487;BME280;25173;50.430;18.926;2023-06-14T13:15:31;98213.06;;;29.16;40.44
39487;BME280;25173;50.430;18.926;2023-06-14T13:18:31;98214.66;;;29.10;40.40
39487;BME280;25173;50.430;18.926;2023-06-14T13:21:32;98219.41;;;29.06;40.23
39487;BME280;25173;50.430;18.926;2023-06-14T13:24:32;98217.69;;;28.76;40.28
39487;BME280;25173;50.430;18.926;2023-06-14T13:27:33;98219.56;;;28.00;40.36
39487;BME280;25173;50.430;18.926;2023-06-14T13:30:34;98217.09;;;27.51;41.75
39487;BME280;25173;50.430;18.926;2023-06-14T13:33:35;98213.91;;;27.93;41.67
39487;BME280;25173;50.430;18.926;2023-06-14T13:36:35;98225.56;;;28.53;40.73
39487;BME280;25173;50.430;18.926;2023-06-14T13:39:36;98217.75;;;28.87;40.12
39487;BME280;25173;50.430;18.926;2023-06-14T13:42:37;98224.19;;;28.98;39.91
39487;BME280;25173;50.430;18.926;2023-06-14T13:45:38;98215.41;;;28.96;39.23
39487;BME280;25173;50.430;18.926;2023-06-14T13:48:39;98222.03;;;28.70;39.32
39487;BME280;25173;50.430;18.926;2023-06-14T13:51:39;98221.84;;;28.38;39.35
39487;BME280;25173;50.430;18.926;2023-06-14T13:54:40;98219.19;;;28.05;38.95
39487;BME280;25173;50.430;18.926;2023-06-14T13:57:50;98217.72;;;27.74;38.93
39487;BME280;25173;50.430;18.926;2023-06-14T14:00:51;98219.84;;;27.47;39.21
39487;BME280;25173;50.430;18.926;2023-06-14T14:03:55;98222.84;;;27.28;39.85
39487;BME280;25173;50.430;18.926;2023-06-14T14:06:56;98223.91;;;27.16;40.06
39487;BME280;25173;50.430;18.926;2023-06-14T14:10:01;98227.88;;;27.49;40.61
39487;BME280;25173;50.430;18.926;2023-06-14T14:13:04;98215.09;;;28.46;39.84
39487;BME280;25173;50.430;18.926;2023-06-14T14:16:08;98212.38;;;29.54;38.05
39487;BME280;25173;50.430;18.926;2023-06-14T14:19:09;98214.69;;;29.24;37.64
39487;BME280;25173;50.430;18.926;2023-06-14T14:22:16;98211.84;;;29.17;38.14
39487;BME280;25173;50.430;18.926;2023-06-14T14:25:18;98213.41;;;28.97;33.82
39487;BME280;25173;50.430;18.926;2023-06-14T14:28:19;98218.31;;;28.48;38.17
39487;BME280;25173;50.430;18.926;2023-06-14T14:31:21;98208.56;;;28.25;37.52
39487;BME280;25173;50.430;18.926;2023-06-14T14:34:22;98203.59;;;28.04;38.15
39487;BME280;25173;50.430;18.926;2023-06-14T14:37:23;98205.09;;;27.94;38.75
39487;BME280;25173;50.430;18.926;2023-06-14T14:40:24;98202.63;;;27.82;38.73
39487;BME280;25173;50.430;18.926;2023-06-14T14:43:45;98216.25;;;27.87;37.86
39487;BME280;25173;50.430;18.926;2023-06-14T14:46:47;98207.13;;;27.97;38.35
39487;BME280;25173;50.430;18.926;2023-06-14T14:49:48;98200.56;;;28.23;37.93
39487;BME280;25173;50.430;18.926;2023-06-14T14:52:49;98206.88;;;28.75;38.13
39487;BME280;25173;50.430;18.926;2023-06-14T14:55:49;98199.56;;;29.71;37.64
39487;BME280;25173;50.430;18.926;2023-06-14T14:58:50;98196.53;;;31.09;36.75
39487;BME280;25173;50.430;18.926;2023-06-14T15:01:51;98193.00;;;32.57;35.23
39487;BME280;25173;50.430;18.926;2023-06-14T15:04:52;98195.72;;;33.59;33.98
39487;BME280;25173;50.430;18.926;2023-06-14T15:07:54;98207.75;;;34.40;33.46
39487;BME280;25173;50.430;18.926;2023-06-14T15:10:55;98199.25;;;34.40;32.47
39487;BME280;25173;50.430;18.926;2023-06-14T15:13:55;98201.84;;;34.07;32.26
39487;BME280;25173;50.430;18.926;2023-06-14T15:16:56;98196.16;;;33.57;32.36
39487;BME280;25173;50.430;18.926;2023-06-14T15:20:06;98206.53;;;33.06;32.32
39487;BME280;25173;50.430;18.926;2023-06-14T15:23:07;98195.31;;;32.28;32.96
39487;BME280;25173;50.430;18.926;2023-06-14T15:26:07;98197.81;;;31.67;34.04
39487;BME280;25173;50.430;18.926;2023-06-14T15:29:08;98190.06;;;31.19;34.30
39487;BME280;25173;50.430;18.926;2023-06-14T15:32:09;98193.13;;;30.52;34.76
39487;BME280;25173;50.430;18.926;2023-06-14T15:35:09;98192.34;;;29.91;35.28
39487;BME280;25173;50.430;18.926;2023-06-14T15:38:10;98192.63;;;29.19;35.80
39487;BME280;25173;50.430;18.926;2023-06-14T15:41:10;98185.41;;;28.35;36.38
39487;BME280;25173;50.430;18.926;2023-06-14T15:44:11;98187.38;;;27.79;36.58
39487;BME280;25173;50.430;18.926;2023-06-14T15:47:11;98187.84;;;27.44;36.95
39487;BME280;25173;50.430;18.926;2023-06-14T15:50:12;98191.47;;;27.08;37.45
39487;BME280;25173;50.430;18.926;2023-06-14T15:53:13;98191.47;;;26.78;38.16
39487;BME280;25173;50.430;18.926;2023-06-14T15:56:13;98196.88;;;26.34;38.55
39487;BME280;25173;50.430;18.926;2023-06-14T15:59:14;98188.91;;;25.83;39.38
39487;BME280;25173;50.430;18.926;2023-06-14T16:02:14;98196.66;;;25.48;40.22
39487;BME280;25173;50.430;18.926;2023-06-14T16:05:15;98190.84;;;25.14;40.73